Time;durP1;ratioP1;P1;durP2;ratioP2;P2;SDS_P1;SDS_P2;PMS_P1;PMS_P2;Temp;Humidity;BMP_temperature;BMP_pressure;BME280_temperature;BME280_humidity;BME280_pressure;Samples;Min_cycle;Max_cycle;Signal;HPM_P1;HPM_P2
2023/01/27 00:02:19;;;;;;;0.30;0.30;;;;;;;11.42;58.88;102639.22;4988969;28;20046;-70
2023/01/27 00:04:44;;;;;;;0.52;0.52;;;;;;;11.00;59.01;102632.81;4989416;28;20041;-70
2023/01/27 00:07:09;;;;;;;0.30;0.30;;;;;;;10.70;60.37;102649.91;4988925;28;20546;-70
2023/01/27 00:09:35;;;;;;;0.30;0.30;;;;;;;11.55;58.47;102653.88;4989296;28;20057;-70
2023/01/27 00:14:44;;;;;;;0.20;0.20;;;;;;;12.25;56.23;102644.16;4987887;28;20050;-70
2023/01/27 00:17:09;;;;;;;0.45;0.45;;;;;;;11.94;57.02;102647.16;4988724;28;20042;-71
2023/01/27 00:19:34;;;;;;;0.50;0.50;;;;;;;12.22;55.95;102645.41;4988131;28;20040;-70
2023/01/27 00:24:43;;;;;;;0.40;0.40;;;;;;;12.16;56.27;102642.63;4985742;28;20046;-70
2023/01/27 00:27:09;;;;;;;0.22;0.22;;;;;;;12.34;55.72;102651.13;4988003;28;20042;-71
2023/01/27 00:29:35;;;;;;;0.30;0.30;;;;;;;12.21;55.76;102653.66;4988051;28;20134;-70
2023/01/27 00:34:45;;;;;;;0.40;0.40;;;;;;;12.26;55.97;102660.13;4986874;28;20046;-70
2023/01/27 00:37:11;;;;;;;0.50;0.50;;;;;;;12.53;55.19;102665.81;4987815;28;20478;-71
2023/01/27 00:39:36;;;;;;;0.40;0.40;;;;;;;11.57;57.46;102662.63;4988267;28;20034;-70
2023/01/27 00:42:02;;;;;;;0.30;0.30;;;;;;;12.02;56.21;102668.59;4988585;28;20046;-70
2023/01/27 00:44:27;;;;;;;0.57;0.57;;;;;;;11.52;57.81;102656.97;4988255;28;20490;-70
2023/01/27 00:46:53;;;;;;;0.43;0.43;;;;;;;11.01;58.97;102666.75;4988745;28;20117;-71
2023/01/27 00:49:18;;;;;;;0.30;0.30;;;;;;;11.04;59.05;102661.88;4984919;28;20406;-70
2023/01/27 00:51:43;;;;;;;0.40;0.40;;;;;;;10.74;59.92;102673.59;4988598;28;20034;-69
2023/01/27 00:54:09;;;;;;;0.40;0.40;;;;;;;10.61;60.51;102682.25;4988150;28;20701;-71
2023/01/27 00:56:35;;;;;;;0.40;0.40;;;;;;;10.10;62.27;102672.19;4987560;28;20039;-70
2023/01/27 00:59:01;;;;;;;0.35;0.35;;;;;;;10.60;60.72;102671.69;4988042;28;20037;-70
2023/01/27 01:01:27;;;;;;;0.35;0.35;;;;;;;10.91;60.19;102674.28;4988310;28;20046;-70
2023/01/27 01:03:53;;;;;;;0.50;0.50;;;;;;;11.05;59.34;102671.59;4988183;28;20117;-71
2023/01/27 01:06:18;;;;;;;0.40;0.40;;;;;;;11.23;59.10;102676.63;4987713;28;20046;-69
2023/01/27 01:08:44;;;;;;;0.63;0.63;;;;;;;11.29;59.43;102678.59;4987509;28;20038;-70
2023/01/27 01:11:12;;;;;;;0.60;0.60;;;;;;;10.47;61.85;102692.97;4987426;28;20042;-70
2023/01/27 01:13:38;;;;;;;0.35;0.35;;;;;;;10.73;60.42;102692.59;4987040;28;20548;-71
2023/01/27 01:16:06;;;;;;;0.30;0.30;;;;;;;10.30;61.69;102689.53;4988068;28;20038;-70
2023/01/27 01:18:31;;;;;;;0.50;0.50;;;;;;;10.58;61.70;102698.75;4987715;28;20113;-69
2023/01/27 01:20:57;;;;;;;0.30;0.30;;;;;;;10.86;60.52;102700.88;4988020;28;20117;-70
2023/01/27 01:23:22;;;;;;;0.30;0.30;;;;;;;10.44;61.72;102696.84;4988337;28;20039;-69
2023/01/27 01:25:55;;;;;;;0.40;0.40;;;;;;;10.88;60.30;102702.38;4987100;28;20581;-70
2023/01/27 01:28:22;;;;;;;0.38;0.38;;;;;;;10.22;62.23;102710.28;4987606;28;20498;-70
2023/01/27 01:30:47;;;;;;;0.50;0.50;;;;;;;10.71;60.98;102708.91;4987797;28;20031;-71
2023/01/27 01:33:12;;;;;;;0.50;0.50;;;;;;;10.78;60.78;102711.69;4987055;28;20030;-71
2023/01/27 01:35:38;;;;;;;0.50;0.50;;;;;;;10.64;61.03;102713.31;4986919;28;20039;-70
2023/01/27 01:38:04;;;;;;;0.32;0.32;;;;;;;11.50;58.27;102713.66;4987195;28;20040;-70
2023/01/27 01:40:29;;;;;;;0.55;0.55;;;;;;;11.37;59.23;102708.94;4987218;28;20177;-71
2023/01/27 01:42:56;;;;;;;0.40;0.40;;;;;;;10.21;61.69;102705.91;4988506;28;20038;-71
2023/01/27 01:45:44;;;;;;;0.40;0.40;;;;;;;10.44;61.39;102699.53;4986637;28;20031;-70
2023/01/27 01:48:15;;;;;;;0.40;0.40;;;;;;;10.12;62.62;102707.78;4985665;28;20169;-71
2023/01/27 01:50:44;;;;;;;0.40;0.40;;;;;;;10.94;60.47;102703.50;4986386;28;20030;-69
2023/01/27 01:53:10;;;;;;;0.30;0.30;;;;;;;11.11;59.52;102705.00;4987099;28;20050;-70
2023/01/27 01:55:38;;;;;;;0.40;0.40;;;;;;;10.66;60.89;102710.44;4986592;28;20044;-70
2023/01/27 01:58:05;;;;;;;0.40;0.40;;;;;;;10.91;60.41;102709.25;4985033;28;20038;-69
2023/01/27 02:00:31;;;;;;;0.20;0.20;;;;;;;11.37;58.64;102719.72;4986159;28;20058;-71
2023/01/27 02:02:56;;;;;;;0.40;0.40;;;;;;;11.45;58.86;102716.94;4983501;28;20046;-69
2023/01/27 02:05:33;;;;;;;0.35;0.35;;;;;;;11.59;58.76;102719.81;4987119;28;20113;-71
2023/01/27 02:08:06;;;;;;;0.30;0.30;;;;;;;11.39;58.94;102724.91;4986616;28;20591;-69
2023/01/27 02:10:33;;;;;;;0.43;0.43;;;;;;;11.07;59.80;102711.75;4986631;28;20117;-69
2023/01/27 02:12:58;;;;;;;0.30;0.30;;;;;;;9.83;62.34;102717.50;4987495;28;20543;-69
2023/01/27 02:15:24;;;;;;;0.45;0.45;;;;;;;10.76;60.48;102722.63;4987012;28;20186;-71
2023/01/27 02:17:49;;;;;;;0.40;0.40;;;;;;;10.58;60.61;102719.41;4985284;28;20109;-71
2023/01/27 02:20:26;;;;;;;0.30;0.30;;;;;;;11.16;58.27;102708.81;4985609;28;20684;-70
2023/01/27 02:23:10;;;;;;;0.25;0.25;;;;;;;10.90;59.93;102716.47;4987260;28;20073;-71
2023/01/27 02:25:35;;;;;;;0.30;0.30;;;;;;;11.43;57.88;102712.75;4986779;28;20034;-71
2023/01/27 02:28:03;;;;;;;0.40;0.40;;;;;;;12.05;56.27;102713.19;4987026;28;20047;-70
2023/01/27 02:30:28;;;;;;;0.32;0.32;;;;;;;10.85;59.45;102716.16;4986760;28;20125;-70
2023/01/27 02:32:54;;;;;;;0.40;0.40;;;;;;;10.97;59.76;102719.25;4986967;28;20141;-71
2023/01/27 02:35:28;;;;;;;0.40;0.40;;;;;;;11.01;58.74;102716.03;4986596;28;20042;-70
2023/01/27 02:37:56;;;;;;;0.60;0.60;;;;;;;11.49;57.13;102723.63;4987127;28;20035;-71
2023/01/27 02:40:23;;;;;;;0.40;0.40;;;;;;;11.38;57.66;102718.69;4986877;28;20069;-70
2023/01/27 02:42:49;;;;;;;0.30;0.30;;;;;;;11.71;56.80;102721.88;4986673;28;20072;-71
2023/01/27 02:45:14;;;;;;;0.50;0.50;;;;;;;12.14;55.16;102721.00;4986591;28;20495;-71
2023/01/27 02:47:39;;;;;;;0.40;0.40;;;;;;;11.38;57.63;102720.53;4985921;28;20570;-70
2023/01/27 02:50:05;;;;;;;0.40;0.40;;;;;;;11.17;58.08;102720.41;4986371;28;20026;-70
2023/01/27 02:52:31;;;;;;;0.35;0.35;;;;;;;10.89;58.14;102722.03;4985978;28;20027;-71
2023/01/27 02:54:56;;;;;;;0.38;0.38;;;;;;;11.31;57.77;102719.59;4984419;28;20054;-69
2023/01/27 02:57:21;;;;;;;0.30;0.30;;;;;;;10.96;58.94;102718.44;4986365;28;20042;-71
2023/01/27 02:59:47;;;;;;;0.32;0.32;;;;;;;11.35;57.89;102716.38;4990935;28;20136;-70
2023/01/27 03:02:13;;;;;;;0.38;0.38;;;;;;;11.90;55.83;102720.47;4991626;28;20510;-71
2023/01/27 03:04:39;;;;;;;0.45;0.45;;;;;;;11.12;57.21;102720.16;4992380;28;20042;-70
2023/01/27 03:07:04;;;;;;;0.25;0.25;;;;;;;10.83;58.58;102725.44;4992824;28;20097;-70
2023/01/27 03:09:30;;;;;;;0.32;0.32;;;;;;;11.46;57.34;102717.75;4993148;28;20145;-69
2023/01/27 03:20:21;;;;;;;0.30;0.30;;;;;;;11.59;56.55;102731.41;4950946;28;20517;-71
2023/01/27 03:22:47;;;;;;;0.25;0.25;;;;;;;10.88;58.10;102723.03;4950862;28;20043;-69
2023/01/27 03:25:13;;;;;;;0.30;0.30;;;;;;;11.35;56.99;102731.69;4950496;29;20083;-70
2023/01/27 03:27:38;;;;;;;0.28;0.28;;;;;;;11.76;55.91;102721.31;4950987;28;20038;-69
2023/01/27 03:30:04;;;;;;;0.40;0.40;;;;;;;11.67;56.62;102731.38;4950509;29;20054;-70
2023/01/27 03:32:31;;;;;;;0.50;0.50;;;;;;;11.76;56.05;102729.38;4949923;28;20050;-70
2023/01/27 03:34:57;;;;;;;0.38;0.38;;;;;;;11.68;56.02;102732.16;4947807;28;20538;-69
2023/01/27 03:48:35;;;;;;;0.30;0.30;;;;;;;11.44;56.57;102726.00;4950347;29;20263;-70
2023/01/27 03:51:03;;;;;;;0.40;0.40;;;;;;;11.80;55.73;102728.84;4966897;28;20109;-69
2023/01/27 03:53:29;;;;;;;0.30;0.30;;;;;;;11.76;56.24;102740.16;4992514;28;20494;-70
2023/01/27 03:55:54;;;;;;;0.25;0.25;;;;;;;11.38;57.14;102744.75;4992547;28;20030;-71
2023/01/27 03:58:28;;;;;;;0.60;0.60;;;;;;;11.56;56.84;102745.22;4992011;28;20133;-70
2023/01/27 04:00:58;;;;;;;0.45;0.45;;;;;;;11.65;56.79;102746.00;4992833;28;20544;-70
2023/01/27 04:08:56;;;;;;;0.40;0.40;;;;;;;11.08;58.73;102759.19;4992888;28;20046;-70
2023/01/27 04:14:07;;;;;;;0.40;0.40;;;;;;;10.96;58.23;102760.63;4987474;28;20038;-71
2023/01/27 04:16:35;;;;;;;0.20;0.20;;;;;;;10.92;57.81;102759.31;4988468;28;20058;-69
2023/01/27 04:19:01;;;;;;;0.38;0.38;;;;;;;10.78;58.48;102760.09;4988950;28;20092;-69
2023/01/27 04:21:26;;;;;;;0.30;0.30;;;;;;;10.84;57.94;102762.06;4989767;28;20046;-69
2023/01/27 04:23:52;;;;;;;0.20;0.20;;;;;;;10.88;57.92;102750.78;4988809;28;20038;-70
2023/01/27 04:26:18;;;;;;;0.52;0.52;;;;;;;11.17;57.41;102758.09;4988913;28;20573;-71
2023/01/27 04:28:44;;;;;;;0.32;0.32;;;;;;;11.05;57.34;102763.06;4988400;28;20425;-71
2023/01/27 04:31:09;;;;;;;0.50;0.50;;;;;;;11.47;55.97;102768.75;4988271;28;20038;-72
2023/01/27 04:33:34;;;;;;;0.30;0.30;;;;;;;11.63;55.92;102758.81;4990584;28;20030;-69
2023/01/27 04:36:00;;;;;;;0.30;0.30;;;;;;;11.63;55.39;102759.66;4988108;28;20097;-70
2023/01/27 04:38:25;;;;;;;0.40;0.40;;;;;;;11.57;55.85;102754.16;4988875;28;20056;-69
2023/01/27 04:40:50;;;;;;;0.38;0.38;;;;;;;11.32;55.84;102758.97;4988240;28;20042;-71
2023/01/27 04:43:16;;;;;;;0.47;0.47;;;;;;;10.79;57.45;102753.72;4988185;28;20442;-70
2023/01/27 04:45:41;;;;;;;0.30;0.30;;;;;;;11.62;54.96;102754.44;4988352;28;20387;-70
2023/01/27 04:48:07;;;;;;;0.43;0.43;;;;;;;11.57;55.06;102755.00;4987926;28;20429;-70
2023/01/27 04:50:32;;;;;;;0.30;0.30;;;;;;;11.78;54.36;102755.13;4986021;28;20047;-70
2023/01/27 04:52:58;;;;;;;0.20;0.20;;;;;;;11.35;55.52;102754.06;4988833;28;20522;-68
2023/01/27 04:55:23;;;;;;;0.40;0.40;;;;;;;10.89;56.41;102759.69;4988648;28;20038;-70
2023/01/27 04:57:48;;;;;;;0.20;0.20;;;;;;;11.32;55.18;102756.28;4988322;28;20297;-70
2023/01/27 05:00:15;;;;;;;0.40;0.40;;;;;;;11.05;55.55;102757.69;4987630;28;20038;-70
2023/01/27 05:02:40;;;;;;;0.40;0.40;;;;;;;11.93;53.15;102763.22;4984099;28;20153;-69
2023/01/27 05:05:06;;;;;;;0.40;0.40;;;;;;;11.45;53.65;102757.31;4984294;28;20515;-70
2023/01/27 05:07:31;;;;;;;0.38;0.38;;;;;;;11.47;53.91;102770.59;4985767;28;20112;-70
2023/01/27 05:09:57;;;;;;;0.32;0.32;;;;;;;11.11;55.18;102766.88;4986647;28;20394;-70
2023/01/27 05:12:23;;;;;;;0.30;0.30;;;;;;;10.88;55.17;102768.75;4987567;28;20062;-70
2023/01/27 05:14:48;;;;;;;0.40;0.40;;;;;;;10.73;56.21;102773.25;4985271;28;20189;-71
2023/01/27 05:17:14;;;;;;;0.32;0.32;;;;;;;10.91;54.88;102780.00;4987702;28;20039;-70
2023/01/27 05:19:39;;;;;;;0.50;0.50;;;;;;;10.90;54.91;102781.03;4987484;28;20046;-70
2023/01/27 05:22:04;;;;;;;0.22;0.22;;;;;;;11.80;52.30;102773.78;4987352;28;20030;-70
2023/01/27 05:24:30;;;;;;;0.30;0.30;;;;;;;11.33;52.97;102779.47;4987724;28;20125;-70
2023/01/27 05:26:56;;;;;;;0.30;0.30;;;;;;;11.12;53.96;102784.72;4988156;28;20092;-71
2023/01/27 05:29:22;;;;;;;0.30;0.30;;;;;;;11.23;53.99;102786.97;4987788;28;21124;-70
2023/01/27 05:31:47;;;;;;;0.50;0.50;;;;;;;11.30;53.41;102787.94;4986313;28;20039;-71
2023/01/27 05:34:13;;;;;;;0.30;0.30;;;;;;;11.63;52.34;102774.97;4988209;28;20041;-71
2023/01/27 05:36:38;;;;;;;0.20;0.20;;;;;;;10.96;53.68;102788.38;4987802;28;20052;-70
2023/01/27 05:39:03;;;;;;;0.30;0.30;;;;;;;11.17;53.10;102790.38;4987534;28;20105;-70
2023/01/27 05:41:30;;;;;;;0.30;0.30;;;;;;;10.91;53.00;102801.50;4988003;28;20514;-71
2023/01/27 05:43:56;;;;;;;0.28;0.28;;;;;;;11.32;53.51;102810.13;4987913;28;20041;-71
2023/01/27 05:46:27;;;;;;;0.40;0.40;;;;;;;11.43;52.32;102810.50;4988106;28;20026;-71
2023/01/27 05:48:55;;;;;;;0.35;0.35;;;;;;;10.23;55.02;102812.19;4985492;28;20038;-70
2023/01/27 05:51:23;;;;;;;0.38;0.38;;;;;;;10.43;55.00;102812.59;4986962;28;20120;-70
2023/01/27 05:53:48;;;;;;;0.40;0.40;;;;;;;10.05;55.52;102810.69;4986807;28;20042;-71
2023/01/27 05:56:17;;;;;;;0.35;0.35;;;;;;;9.32;57.73;102828.81;4987141;28;20053;-70
2023/01/27 05:58:43;;;;;;;0.30;0.30;;;;;;;10.36;55.36;102817.81;4986120;28;20087;-70
2023/01/27 06:01:13;;;;;;;0.35;0.35;;;;;;;10.37;54.79;102810.59;4985263;28;20050;-69
2023/01/27 06:03:39;;;;;;;0.25;0.25;;;;;;;9.52;57.15;102827.44;4984828;28;20038;-70
2023/01/27 06:06:06;;;;;;;0.40;0.40;;;;;;;10.52;53.97;102816.91;4985999;28;20033;-71
2023/01/27 06:08:33;;;;;;;0.40;0.40;;;;;;;10.67;53.74;102812.47;4980523;28;20491;-69
2023/01/27 06:10:59;;;;;;;0.47;0.47;;;;;;;9.17;57.14;102817.91;4982364;28;20047;-69
2023/01/27 06:13:25;;;;;;;0.30;0.30;;;;;;;10.62;54.06;102817.50;4986954;28;20056;-70
2023/01/27 06:15:51;;;;;;;0.25;0.25;;;;;;;10.94;53.63;102827.22;4986531;28;20038;-71
2023/01/27 06:18:18;;;;;;;0.43;0.43;;;;;;;11.05;52.80;102824.09;4985169;28;20656;-71
2023/01/27 06:20:44;;;;;;;0.28;0.28;;;;;;;10.05;56.54;102833.03;4985277;28;20081;-71
2023/01/27 06:23:11;;;;;;;0.30;0.30;;;;;;;10.23;56.34;102838.22;4988441;28;20034;-70
2023/01/27 06:25:43;;;;;;;0.30;0.30;;;;;;;10.27;55.57;102831.47;4986283;28;20483;-70
2023/01/27 06:28:09;;;;;;;0.38;0.38;;;;;;;10.92;53.57;102824.72;4985790;28;20037;-71
2023/01/27 06:30:35;;;;;;;0.30;0.30;;;;;;;10.75;54.59;102822.31;4982200;28;20534;-69
2023/01/27 06:33:02;;;;;;;0.32;0.32;;;;;;;10.49;55.37;102828.00;4984596;28;20038;-70
2023/01/27 06:35:28;;;;;;;0.30;0.30;;;;;;;11.06;53.56;102831.19;4985700;28;20041;-71
2023/01/27 06:37:56;;;;;;;0.30;0.30;;;;;;;11.15;53.47;102817.47;4985560;28;20117;-71
2023/01/27 06:40:21;;;;;;;0.30;0.30;;;;;;;9.89;56.58;102827.72;4986636;28;20030;-70
2023/01/27 06:42:47;;;;;;;0.30;0.30;;;;;;;10.90;53.80;102833.97;4985915;28;20521;-71
2023/01/27 06:45:12;;;;;;;0.40;0.40;;;;;;;11.12;53.17;102833.16;4986212;28;20045;-71
2023/01/27 06:47:38;;;;;;;0.20;0.20;;;;;;;10.41;54.69;102836.97;4985188;28;20026;-71
2023/01/27 06:50:05;;;;;;;0.50;0.50;;;;;;;11.11;53.12;102831.47;4985362;28;20104;-70
2023/01/27 06:52:30;;;;;;;0.40;0.40;;;;;;;10.26;55.57;102829.81;4985871;28;20061;-69
2023/01/27 06:54:56;;;;;;;0.20;0.20;;;;;;;11.26;52.98;102841.25;4987305;28;20042;-71
2023/01/27 06:57:21;;;;;;;0.40;0.40;;;;;;;10.76;54.00;102835.59;4985418;28;20041;-71
2023/01/27 06:59:46;;;;;;;0.43;0.43;;;;;;;11.06;53.42;102832.03;4984720;28;20125;-71
2023/01/27 07:02:12;;;;;;;0.28;0.28;;;;;;;10.19;56.06;102836.88;4984706;28;20643;-71
2023/01/27 07:04:38;;;;;;;0.22;0.22;;;;;;;10.42;55.34;102835.09;4984088;28;20034;-72
2023/01/27 07:07:03;;;;;;;0.30;0.30;;;;;;;10.44;55.05;102838.44;4984900;28;20033;-69
2023/01/27 07:09:28;;;;;;;0.20;0.20;;;;;;;10.18;56.65;102841.41;4984790;28;20115;-71
2023/01/27 07:11:54;;;;;;;0.40;0.40;;;;;;;10.21;55.91;102846.44;4985695;28;20034;-72
2023/01/27 07:14:19;;;;;;;0.35;0.35;;;;;;;10.64;55.11;102842.38;4985958;28;20034;-70
2023/01/27 07:16:45;;;;;;;0.30;0.30;;;;;;;10.46;55.50;102844.47;4985351;28;21119;-72
2023/01/27 07:19:11;;;;;;;0.35;0.35;;;;;;;10.76;53.75;102856.25;4986231;28;20093;-71
2023/01/27 07:21:37;;;;;;;0.40;0.40;;;;;;;11.05;53.66;102849.16;4986337;28;20042;-72
2023/01/27 07:24:02;;;;;;;0.30;0.30;;;;;;;11.07;53.12;102854.34;4985554;28;20038;-71
2023/01/27 07:26:28;;;;;;;0.30;0.30;;;;;;;10.70;54.85;102855.09;4986006;28;20039;-72
2023/01/27 07:28:54;;;;;;;0.20;0.20;;;;;;;11.03;53.63;102853.03;4986529;28;20127;-74
2023/01/27 07:31:20;;;;;;;0.30;0.30;;;;;;;11.41;51.92;102863.69;4985314;28;20034;-71
2023/01/27 07:33:45;;;;;;;0.20;0.20;;;;;;;10.61;54.57;102861.56;4986127;28;20513;-71
2023/01/27 07:36:10;;;;;;;0.40;0.40;;;;;;;9.55;57.22;102875.44;4985703;28;20038;-73
2023/01/27 07:38:37;;;;;;;0.30;0.30;;;;;;;10.43;54.68;102875.25;4985627;28;20039;-71
2023/01/27 07:41:04;;;;;;;0.20;0.20;;;;;;;10.40;54.43;102872.91;4984014;28;20076;-71
2023/01/27 07:43:30;;;;;;;0.30;0.30;;;;;;;10.35;55.08;102877.13;4986098;28;20483;-73
2023/01/27 07:45:56;;;;;;;0.40;0.40;;;;;;;10.91;53.52;102878.69;4988546;28;20029;-69
2023/01/27 07:48:21;;;;;;;0.40;0.40;;;;;;;10.61;54.57;102875.00;4989982;28;20054;-71
2023/01/27 07:50:47;;;;;;;0.32;0.32;;;;;;;10.05;56.56;102875.16;4989485;28;20050;-71
2023/01/27 07:53:12;;;;;;;0.40;0.40;;;;;;;10.34;55.17;102878.13;4985712;28;20042;-71
2023/01/27 07:55:38;;;;;;;0.30;0.30;;;;;;;10.94;54.18;102879.19;4987769;28;20129;-71
2023/01/27 07:58:03;;;;;;;0.30;0.30;;;;;;;10.44;55.47;102879.59;4989514;28;20114;-70
2023/01/27 08:00:29;;;;;;;0.35;0.35;;;;;;;10.06;55.75;102882.22;4991391;28;20061;-70
2023/01/27 08:02:56;;;;;;;0.40;0.40;;;;;;;9.84;57.45;102891.84;4989936;28;20065;-71
2023/01/27 08:05:22;;;;;;;0.30;0.30;;;;;;;10.89;54.51;102888.81;4990402;28;20113;-71
2023/01/27 08:07:49;;;;;;;0.38;0.38;;;;;;;10.86;54.21;102891.81;4990485;28;20506;-70
2023/01/27 08:10:16;;;;;;;0.30;0.30;;;;;;;11.25;53.21;102888.03;4991954;28;20469;-72
2023/01/27 08:12:42;;;;;;;0.30;0.30;;;;;;;10.70;54.48;102889.22;4991650;28;20061;-70
2023/01/27 08:15:08;;;;;;;0.30;0.30;;;;;;;10.09;55.79;102890.78;4990971;28;20034;-71
2023/01/27 08:17:33;;;;;;;0.20;0.20;;;;;;;10.67;55.06;102892.28;4990489;28;20403;-70
2023/01/27 08:19:59;;;;;;;0.30;0.30;;;;;;;10.14;56.88;102895.66;4991022;28;20050;-71
2023/01/27 08:22:24;;;;;;;0.43;0.43;;;;;;;9.23;59.08;102903.09;4992160;28;20376;-70
2023/01/27 08:24:50;;;;;;;0.30;0.30;;;;;;;9.69;58.86;102904.25;4992393;28;20504;-71
2023/01/27 08:27:16;;;;;;;0.30;0.30;;;;;;;9.88;57.81;102898.56;4991015;28;20030;-71
2023/01/27 08:29:42;;;;;;;0.30;0.30;;;;;;;10.31;56.00;102902.66;4992333;28;20042;-70
2023/01/27 08:32:07;;;;;;;0.30;0.30;;;;;;;10.35;56.30;102906.69;4992124;28;20038;-69
2023/01/27 08:34:33;;;;;;;0.30;0.30;;;;;;;10.93;55.09;102899.00;4989569;28;20042;-70
2023/01/27 08:36:59;;;;;;;0.55;0.55;;;;;;;11.06;54.70;102898.44;4992042;28;20518;-71
2023/01/27 08:39:24;;;;;;;0.40;0.40;;;;;;;10.44;56.06;102903.78;4991184;28;20328;-70
2023/01/27 08:41:50;;;;;;;0.38;0.38;;;;;;;10.93;55.14;102901.69;4990639;28;20046;-71
2023/01/27 08:44:16;;;;;;;0.30;0.30;;;;;;;11.16;55.38;102907.13;4990646;28;20384;-70
2023/01/27 08:46:41;;;;;;;0.50;0.50;;;;;;;11.20;55.31;102911.94;4990578;28;20597;-71
2023/01/27 08:49:06;;;;;;;0.35;0.35;;;;;;;10.35;57.66;102914.75;4989853;28;20037;-69
2023/01/27 08:51:32;;;;;;;0.40;0.40;;;;;;;10.97;56.43;102913.78;4991176;28;20410;-71
2023/01/27 08:53:57;;;;;;;0.30;0.30;;;;;;;11.26;55.11;102911.22;4990812;28;20026;-70
2023/01/27 08:56:23;;;;;;;0.38;0.38;;;;;;;11.55;53.84;102917.75;4989751;28;20042;-71
2023/01/27 08:58:51;;;;;;;0.30;0.30;;;;;;;11.75;53.69;102921.66;4984298;28;20042;-70
2023/01/27 09:01:18;;;;;;;0.40;0.40;;;;;;;10.95;55.30;102918.50;4990981;28;20058;-70
2023/01/27 09:03:44;;;;;;;0.40;0.40;;;;;;;10.73;56.42;102926.53;4992645;28;20042;-71
2023/01/27 09:06:11;;;;;;;0.25;0.25;;;;;;;10.89;56.78;102935.34;4991833;28;20034;-71
2023/01/27 09:08:38;;;;;;;0.38;0.38;;;;;;;11.59;54.62;102929.84;4992711;28;20092;-70
2023/01/27 09:11:15;;;;;;;0.40;0.40;;;;;;;11.77;53.88;102927.69;4991000;28;20038;-71
2023/01/27 09:13:41;;;;;;;0.30;0.30;;;;;;;11.18;56.01;102935.50;4990623;28;20046;-70
2023/01/27 09:16:07;;;;;;;0.30;0.30;;;;;;;11.49;55.41;102936.31;4990948;28;20237;-71
2023/01/27 09:18:33;;;;;;;0.30;0.30;;;;;;;10.93;56.76;102939.34;4991864;28;20509;-70
2023/01/27 09:21:05;;;;;;;0.30;0.30;;;;;;;10.97;56.18;102948.75;4991865;28;20050;-70
2023/01/27 09:23:31;;;;;;;0.40;0.40;;;;;;;11.55;55.32;102942.81;4991868;28;20049;-69
2023/01/27 09:25:56;;;;;;;0.25;0.25;;;;;;;11.57;54.52;102948.03;4992048;28;20364;-70
2023/01/27 09:28:22;;;;;;;0.50;0.50;;;;;;;11.52;55.32;102948.56;4991220;28;20053;-69
2023/01/27 09:30:48;;;;;;;0.38;0.38;;;;;;;11.54;54.71;102951.91;4991528;28;20516;-69
2023/01/27 09:33:14;;;;;;;0.50;0.50;;;;;;;11.86;54.22;102943.59;4987538;28;20039;-70
2023/01/27 09:35:48;;;;;;;0.43;0.43;;;;;;;12.22;52.78;102946.44;4991101;28;20038;-70
2023/01/27 09:38:19;;;;;;;0.40;0.40;;;;;;;11.68;54.68;102953.00;4991029;28;20065;-69
2023/01/27 09:40:56;;;;;;;;;;;;;;;12.09;53.79;102967.78;4992167;28;20049;-71
2023/01/27 09:43:24;;;;;;;0.50;0.50;;;;;;;11.84;55.04;102956.41;4991441;28;19918;-71
2023/01/27 09:46:08;;;;;;;0.30;0.30;;;;;;;12.20;53.77;102964.66;4990533;28;20041;-71
2023/01/27 09:48:43;;;;;;;0.40;0.40;;;;;;;11.64;54.80;102965.13;4988288;28;20553;-70
2023/01/27 09:51:29;;;;;;;0.40;0.40;;;;;;;12.00;54.67;102963.50;4988910;28;20053;-71
2023/01/27 09:54:12;;;;;;;0.40;0.40;;;;;;;12.28;53.88;102964.59;4990959;28;20048;-70
2023/01/27 09:56:40;;;;;;;0.30;0.30;;;;;;;12.74;53.05;102959.81;4989368;28;20070;-70
2023/01/27 09:59:11;;;;;;;0.35;0.35;;;;;;;12.39;53.47;102964.13;4989969;28;20038;-70
2023/01/27 10:02:01;;;;;;;0.32;0.32;;;;;;;12.67;52.85;102967.84;4989480;28;20050;-70
2023/01/27 10:04:42;;;;;;;0.30;0.30;;;;;;;12.25;53.27;102965.78;4990022;28;20038;-70
2023/01/27 10:07:18;;;;;;;;;;;;;;;13.14;51.75;102970.13;4986075;28;20086;-70
2023/01/27 10:09:59;;;;;;;0.20;0.20;;;;;;;12.43;53.05;102973.50;4990487;28;19906;-69
2023/01/27 10:12:41;;;;;;;0.30;0.30;;;;;;;12.90;52.16;102959.63;4988266;28;20053;-71
2023/01/27 10:15:07;;;;;;;0.28;0.28;;;;;;;12.54;52.67;102966.84;4986878;28;21003;-70
2023/01/27 10:17:38;;;;;;;0.20;0.20;;;;;;;12.83;52.83;102962.25;4987949;28;20049;-69
2023/01/27 10:20:22;;;;;;;0.28;0.28;;;;;;;12.81;52.23;102958.91;4987108;28;20039;-71
2023/01/27 10:23:12;;;;;;;0.35;0.35;;;;;;;12.56;53.34;102962.09;4987795;28;20038;-70
2023/01/27 10:26:18;;;;;;;0.30;0.30;;;;;;;12.97;52.77;102960.56;4988665;28;20050;-70
2023/01/27 10:28:54;;;;;;;0.25;0.25;;;;;;;12.94;53.05;102959.06;4987417;28;20034;-70
2023/01/27 10:31:34;;;;;;;0.30;0.30;;;;;;;12.57;53.17;102955.66;4989513;28;20111;-70
2023/01/27 10:34:16;;;;;;;0.35;0.35;;;;;;;13.17;51.81;102964.34;4988650;28;20025;-70
2023/01/27 10:37:09;;;;;;;0.40;0.40;;;;;;;13.05;51.68;102964.00;4986943;28;20081;-70
2023/01/27 10:39:51;;;;;;;0.30;0.30;;;;;;;12.85;52.39;102962.91;4985973;28;20046;-70
2023/01/27 10:42:48;;;;;;;0.50;0.50;;;;;;;12.51;52.84;102967.19;4988537;28;20119;-70
2023/01/27 10:45:23;;;;;;;0.20;0.20;;;;;;;11.93;54.30;102960.69;4985742;28;20042;-71
2023/01/27 10:48:10;;;;;;;0.35;0.35;;;;;;;12.18;53.28;102969.41;4987504;28;20081;-71
2023/01/27 10:51:04;;;;;;;0.40;0.40;;;;;;;11.90;54.02;102968.31;4989002;28;20096;-70
2023/01/27 10:53:51;;;;;;;0.30;0.30;;;;;;;11.97;54.22;102963.88;4963799;28;20038;-69
2023/01/27 10:56:41;;;;;;;0.30;0.30;;;;;;;12.92;51.17;102968.38;4961148;28;20286;-70
2023/01/27 10:59:36;;;;;;;0.30;0.30;;;;;;;12.58;51.71;102968.13;4961852;28;20495;-70
2023/01/27 11:02:08;;;;;;;0.40;0.40;;;;;;;12.42;53.10;102960.22;4960087;28;20078;-70
2023/01/27 11:04:38;;;;;;;0.32;0.32;;;;;;;12.43;52.25;102959.19;4962001;28;20074;-71
2023/01/27 11:07:04;;;;;;;0.20;0.20;;;;;;;12.41;51.91;102964.78;4964490;28;20174;-69
2023/01/27 11:09:33;;;;;;;0.30;0.30;;;;;;;11.83;53.67;102959.28;4964334;28;20046;-71
2023/01/27 11:12:11;;;;;;;0.40;0.40;;;;;;;12.53;51.98;102954.34;4963596;28;20550;-70
2023/01/27 11:14:51;;;;;;;0.45;0.45;;;;;;;12.72;52.09;102960.00;4959755;28;20076;-70
2023/01/27 11:17:47;;;;;;;0.30;0.30;;;;;;;12.16;53.21;102947.19;4964198;28;20042;-71
2023/01/27 11:20:34;;;;;;;0.20;0.20;;;;;;;12.78;52.01;102948.47;4969142;28;20038;-71
2023/01/27 11:23:08;;;;;;;0.30;0.30;;;;;;;12.15;53.43;102954.44;4966083;28;20044;-69
2023/01/27 11:25:43;;;;;;;0.30;0.30;;;;;;;12.90;51.03;102949.66;4968017;28;20034;-70
2023/01/27 11:28:31;;;;;;;0.30;0.30;;;;;;;12.27;52.24;102944.88;4967017;28;20085;-70
2023/01/27 11:31:07;;;;;;;0.40;0.40;;;;;;;12.30;52.18;102951.75;4986861;28;20082;-71
2023/01/27 11:33:48;;;;;;;0.40;0.40;;;;;;;12.12;52.88;102940.50;4993148;28;20505;-68
2023/01/27 11:36:13;;;;;;;0.55;0.55;;;;;;;12.16;53.12;102945.34;4992743;28;20034;-69
2023/01/27 11:38:39;;;;;;;0.20;0.20;;;;;;;12.63;51.45;102938.72;4992386;28;20039;-70
2023/01/27 11:41:04;;;;;;;0.30;0.30;;;;;;;12.08;52.67;102944.56;4993125;28;20513;-70
2023/01/27 11:43:30;;;;;;;0.40;0.40;;;;;;;12.34;51.93;102948.50;4993614;28;20121;-70
2023/01/27 11:46:05;;;;;;;0.30;0.30;;;;;;;11.94;53.10;102938.13;4992537;28;20087;-70
2023/01/27 11:48:39;;;;;;;0.30;0.30;;;;;;;12.22;52.58;102941.91;4992780;28;20049;-70
2023/01/27 11:51:13;;;;;;;0.40;0.40;;;;;;;12.85;51.16;102952.13;4993377;28;20045;-70
2023/01/27 11:53:40;;;;;;;0.40;0.40;;;;;;;11.50;54.45;102934.44;4992811;28;20663;-71
2023/01/27 11:56:16;;;;;;;0.35;0.35;;;;;;;12.03;53.26;102934.34;4993082;28;20348;-70
2023/01/27 11:58:56;;;;;;;0.50;0.50;;;;;;;12.64;52.19;102935.84;4993455;28;20034;-70
2023/01/27 12:01:38;;;;;;;0.30;0.30;;;;;;;12.72;52.07;102940.28;4988234;28;20129;-71
2023/01/27 12:04:10;;;;;;;0.30;0.30;;;;;;;12.72;51.41;102935.75;4989270;28;20050;-69
2023/01/27 12:06:43;;;;;;;0.30;0.30;;;;;;;12.69;51.32;102919.09;4985238;28;20040;-72
2023/01/27 12:09:36;;;;;;;0.30;0.30;;;;;;;12.44;52.03;102926.66;4989421;28;20132;-71
2023/01/27 12:12:13;;;;;;;0.38;0.38;;;;;;;12.79;51.06;102917.78;4986048;28;20158;-70